createdAt,value
2019-04-06T00:02:23.630Z,33.83
2019-04-06T00:04:53.407Z,29.53
2019-04-06T00:07:23.104Z,20.77
2019-04-06T00:09:52.833Z,18.83
2019-04-06T00:12:22.575Z,19.27
2019-04-06T00:14:52.239Z,15.37
2019-04-06T00:17:21.891Z,18.00
2019-04-06T00:19:51.632Z,19.13
2019-04-06T00:22:21.275Z,19.83
2019-04-06T00:24:50.939Z,21.83
2019-04-06T00:27:20.651Z,18.20
2019-04-06T00:29:50.377Z,19.93
2019-04-06T00:32:44.977Z,23.23
2019-04-06T00:35:14.648Z,17.07
2019-04-06T00:37:44.312Z,16.43
2019-04-06T00:40:14.218Z,20.17
2019-04-06T00:42:43.909Z,15.77
2019-04-06T00:45:13.607Z,15.33
2019-04-06T00:47:43.262Z,23.20
2019-04-06T00:50:13.159Z,16.17
2019-04-06T00:52:42.857Z,15.97
2019-04-06T00:55:12.568Z,20.37
2019-04-06T00:57:42.242Z,21.53
2019-04-06T01:00:12.078Z,14.63
2019-04-06T01:02:41.739Z,19.87
2019-04-06T01:05:11.709Z,15.77
2019-04-06T01:07:41.434Z,21.10
2019-04-06T01:10:11.344Z,19.97
2019-04-06T01:12:41.007Z,18.53
2019-04-06T01:15:10.808Z,19.23
2019-04-06T01:17:40.454Z,19.53
2019-04-06T01:20:10.272Z,17.23
2019-04-06T01:22:39.939Z,23.10
2019-04-06T01:25:10.505Z,17.37
2019-04-06T01:27:40.293Z,15.93
2019-04-06T01:30:10.987Z,16.23
2019-04-06T01:32:40.693Z,17.87
2019-04-06T01:35:10.339Z,18.20
2019-04-06T01:37:40.005Z,15.30
2019-04-06T01:40:10.048Z,16.23
2019-04-06T01:42:39.747Z,17.50
2019-04-06T01:45:10.310Z,19.37
2019-04-06T01:47:40.005Z,17.13
2019-04-06T01:50:09.809Z,14.97
2019-04-06T01:52:39.478Z,17.20
2019-04-06T01:55:09.346Z,18.07
2019-04-06T01:57:39.058Z,14.97
2019-04-06T02:00:10.747Z,20.27
2019-04-06T02:02:42.355Z,16.40
2019-04-06T02:05:12.359Z,17.83
2019-04-06T02:07:42.032Z,17.93
2019-04-06T02:10:11.970Z,16.87
2019-04-06T02:12:41.689Z,19.43
2019-04-06T02:15:11.492Z,17.00
2019-04-06T02:17:41.111Z,19.87
2019-04-06T02:20:11.032Z,18.00
2019-04-06T02:22:40.686Z,18.07
2019-04-06T02:25:10.382Z,15.87
2019-04-06T02:27:40.152Z,16.63
2019-04-06T02:30:23.712Z,17.33
2019-04-06T02:33:14.077Z,17.50
2019-04-06T02:36:01.189Z,19.20
2019-04-06T02:38:52.284Z,17.23
2019-04-06T02:41:39.360Z,21.03
2019-04-06T02:44:09.134Z,19.33
2019-04-06T02:46:38.821Z,16.70
2019-04-06T02:49:08.530Z,18.20
2019-04-06T02:51:38.208Z,18.47
2019-04-06T02:54:07.969Z,19.23
2019-04-06T02:56:46.004Z,17.70
2019-04-06T02:59:09.108Z,19.80
2019-04-06T03:01:38.837Z,19.17
2019-04-06T03:04:08.500Z,17.70
2019-04-06T03:06:38.161Z,18.53
2019-04-06T03:09:11.273Z,29.80
2019-04-06T03:11:39.382Z,27.07
2019-04-06T03:14:09.071Z,47.63
2019-04-06T03:16:38.769Z,26.17
2019-04-06T03:19:08.637Z,23.70
2019-04-06T03:21:38.348Z,20.40
2019-04-06T03:24:08.126Z,17.30
2019-04-06T03:26:37.871Z,17.67
2019-04-06T03:29:07.562Z,16.90
2019-04-06T03:31:37.310Z,18.27
2019-04-06T03:34:07.041Z,21.27
2019-04-06T03:36:36.720Z,18.10
2019-04-06T03:39:07.698Z,20.03
2019-04-06T03:41:37.416Z,18.77
2019-04-06T03:44:07.112Z,17.10
2019-04-06T03:46:36.846Z,21.20
2019-04-06T03:49:06.633Z,18.47
2019-04-06T03:51:36.792Z,18.33
2019-04-06T03:54:06.475Z,17.57
2019-04-06T03:56:36.251Z,21.27
2019-04-06T03:59:06.107Z,23.70
2019-04-06T04:01:35.878Z,18.60
2019-04-06T04:04:05.597Z,21.30
2019-04-06T04:06:35.251Z,22.47
2019-04-06T04:09:06.386Z,17.67
2019-04-06T04:11:36.086Z,17.67
2019-04-06T04:14:05.872Z,18.27
2019-04-06T04:16:35.561Z,18.47
2019-04-06T04:19:05.206Z,21.93
2019-04-06T04:21:35.019Z,20.50
2019-04-06T04:24:04.721Z,25.70
2019-04-06T04:26:34.437Z,20.60
2019-04-06T04:29:04.160Z,19.50
2019-04-06T04:31:33.852Z,18.77
2019-04-06T04:34:05.028Z,19.37
2019-04-06T04:36:34.693Z,18.47
2019-04-06T04:39:05.950Z,17.63
2019-04-06T04:41:35.705Z,16.87
2019-04-06T04:44:05.895Z,20.47
2019-04-06T04:46:35.561Z,19.20
2019-04-06T04:49:05.358Z,17.77
2019-04-06T04:51:35.011Z,18.50
2019-04-06T04:54:04.831Z,19.13
2019-04-06T04:56:34.523Z,17.03
2019-04-06T04:59:04.218Z,19.13
2019-04-06T05:01:33.920Z,20.93
2019-04-06T05:04:03.683Z,20.60
2019-04-06T05:06:33.520Z,22.97
2019-04-06T05:09:04.061Z,20.63
2019-04-06T05:11:33.733Z,18.17
2019-04-06T05:14:39.212Z,23.23
2019-04-06T05:17:08.883Z,19.53
2019-04-06T05:19:38.586Z,22.87
2019-04-06T05:22:09.024Z,17.90
2019-04-06T05:24:38.723Z,20.00
2019-04-06T05:27:08.396Z,19.63
2019-04-06T05:29:38.976Z,18.20
2019-04-06T05:32:08.700Z,23.30
2019-04-06T05:34:38.580Z,21.43
2019-04-06T05:37:08.347Z,19.33
2019-04-06T05:39:38.142Z,16.77
2019-04-06T05:42:07.845Z,16.47
2019-04-06T05:44:37.689Z,19.00
2019-04-06T05:47:07.618Z,18.47
2019-04-06T05:49:37.608Z,20.27
2019-04-06T05:52:07.332Z,21.07
2019-04-06T05:54:37.944Z,17.90
2019-04-06T05:57:07.687Z,15.00
2019-04-06T05:59:40.318Z,22.40
2019-04-06T06:02:09.928Z,18.93
2019-04-06T06:04:40.547Z,16.77
2019-04-06T06:07:10.938Z,18.67
2019-04-06T06:09:40.635Z,20.67
2019-04-06T06:12:11.876Z,18.03
2019-04-06T06:14:41.593Z,16.93
2019-04-06T06:17:11.259Z,17.17
2019-04-06T06:19:40.935Z,17.47
2019-04-06T06:22:10.623Z,16.07
2019-04-06T06:24:40.373Z,18.93
2019-04-06T06:27:10.346Z,18.60
2019-04-06T06:29:40.150Z,22.13
2019-04-06T06:32:09.933Z,17.60
2019-04-06T06:34:39.670Z,18.10
2019-04-06T06:37:09.338Z,16.93
2019-04-06T06:39:39.416Z,16.73
2019-04-06T06:42:09.439Z,19.40
2019-04-06T06:44:39.114Z,15.77
2019-04-06T06:47:08.842Z,16.47
2019-04-06T06:49:38.514Z,16.87
2019-04-06T06:52:08.209Z,17.40
2019-04-06T06:54:37.908Z,16.13
2019-04-06T06:57:07.835Z,15.60
2019-04-06T06:59:37.545Z,16.33
2019-04-06T07:02:07.216Z,15.53
2019-04-06T07:04:36.962Z,14.37
2019-04-06T07:07:06.636Z,16.93
2019-04-06T07:09:36.353Z,15.23
2019-04-06T07:12:06.391Z,15.17
2019-04-06T07:14:36.136Z,16.13
2019-04-06T07:17:05.798Z,16.63
2019-04-06T07:19:35.496Z,15.40
2019-04-06T07:22:05.162Z,14.60
2019-04-06T07:24:34.830Z,20.33
2019-04-06T07:27:04.495Z,14.07
2019-04-06T07:29:34.242Z,17.10
2019-04-06T07:32:03.903Z,15.07
2019-04-06T07:34:33.591Z,16.97
2019-04-06T07:37:03.365Z,15.37
2019-04-06T07:39:33.028Z,14.50
2019-04-06T07:42:02.776Z,15.53
2019-04-06T07:44:32.493Z,16.40
2019-04-06T07:47:02.198Z,16.20
2019-04-06T07:49:31.956Z,17.87
2019-04-06T07:52:01.673Z,18.87
2019-04-06T07:54:31.496Z,17.07
2019-04-06T07:57:01.191Z,16.63
2019-04-06T07:59:30.962Z,14.53
2019-04-06T08:02:00.765Z,17.87
2019-04-06T08:04:30.552Z,12.90
2019-04-06T08:07:00.468Z,17.27
2019-04-06T08:09:30.158Z,17.57
2019-04-06T08:11:59.845Z,14.90
2019-04-06T08:14:29.592Z,14.43
2019-04-06T08:16:59.281Z,18.10
2019-04-06T08:19:28.964Z,15.10
2019-04-06T08:21:58.653Z,15.57
2019-04-06T08:24:28.320Z,14.67
2019-04-06T08:26:58.003Z,11.40
2019-04-06T08:29:28.371Z,12.10
2019-04-06T08:31:58.106Z,11.13
2019-04-06T08:34:27.977Z,15.27
2019-04-06T08:36:57.721Z,15.47
2019-04-06T08:39:27.424Z,12.33
2019-04-06T08:41:57.702Z,17.70
2019-04-06T08:44:27.474Z,11.27
2019-04-06T08:46:57.578Z,13.87
2019-04-06T08:49:27.252Z,17.93
2019-04-06T08:51:56.909Z,13.90
2019-04-06T08:54:26.606Z,12.87
2019-04-06T08:56:56.294Z,13.27
2019-04-06T08:59:25.957Z,16.13
2019-04-06T09:01:55.693Z,11.13
2019-04-06T09:04:25.419Z,12.73
2019-04-06T09:06:55.595Z,12.83
2019-04-06T09:09:25.341Z,11.23
2019-04-06T09:11:55.256Z,12.63
2019-04-06T09:14:24.867Z,12.97
2019-04-06T09:16:54.551Z,12.37
2019-04-06T09:19:24.681Z,13.87
2019-04-06T09:21:54.378Z,12.10
2019-04-06T09:24:24.036Z,12.27
2019-04-06T09:26:53.812Z,8.70
2019-04-06T09:29:24.587Z,8.93
2019-04-06T09:31:54.946Z,14.07
2019-04-06T09:34:24.742Z,12.57
2019-04-06T09:36:55.131Z,10.57
2019-04-06T09:39:25.047Z,11.50
2019-04-06T09:41:54.723Z,10.80
2019-04-06T09:44:46.424Z,8.93
2019-04-06T09:47:36.259Z,14.80
2019-04-06T09:50:28.840Z,16.70
2019-04-06T09:53:16.213Z,16.97
2019-04-06T09:56:10.831Z,14.30
2019-04-06T09:59:06.623Z,11.83
2019-04-06T10:01:55.905Z,14.47
2019-04-06T10:04:47.677Z,9.80
2019-04-06T10:07:54.453Z,11.70
2019-04-06T10:10:46.035Z,9.40
2019-04-06T10:13:33.319Z,11.27
2019-04-06T10:16:20.764Z,13.13
2019-04-06T10:19:04.091Z,22.30
2019-04-06T10:21:51.179Z,13.07
2019-04-06T10:24:38.375Z,14.73
2019-04-06T10:27:25.647Z,14.77
2019-04-06T10:30:17.114Z,16.00
2019-04-06T10:33:17.966Z,12.43
2019-04-06T10:36:06.599Z,11.00
2019-04-06T10:38:58.259Z,17.87
2019-04-06T10:41:55.708Z,11.77
2019-04-06T10:44:56.348Z,9.73
2019-04-06T10:47:37.858Z,17.50
2019-04-06T10:50:25.518Z,13.40
2019-04-06T10:53:12.743Z,10.03
2019-04-06T10:56:01.404Z,12.70
2019-04-06T10:58:48.572Z,9.70
2019-04-06T11:01:37.370Z,10.57
2019-04-06T11:04:14.683Z,11.20
2019-04-06T11:06:51.129Z,12.87
2019-04-06T11:09:51.988Z,13.77
2019-04-06T11:12:49.399Z,11.10
2019-04-06T11:15:40.997Z,14.03
2019-04-06T11:18:21.186Z,10.83
2019-04-06T11:21:09.990Z,10.90
2019-04-06T11:23:50.080Z,11.30
2019-04-06T11:26:38.692Z,11.90
2019-04-06T11:29:27.284Z,14.33
2019-04-06T11:32:21.912Z,16.30
2019-04-06T11:35:25.937Z,10.30
2019-04-06T11:38:08.532Z,9.77
2019-04-06T11:40:57.105Z,12.53
2019-04-06T11:43:41.507Z,13.80
2019-04-06T11:46:30.087Z,16.40
2019-04-06T11:49:24.631Z,12.67
2019-04-06T11:52:11.321Z,10.53
2019-04-06T11:55:04.868Z,12.20
2019-04-06T11:57:40.603Z,16.27
2019-04-06T12:00:44.860Z,9.80
2019-04-06T12:03:20.252Z,11.73
2019-04-06T12:06:06.563Z,15.83
2019-04-06T12:08:57.336Z,11.60
2019-04-06T12:11:46.111Z,15.67
2019-04-06T12:14:32.878Z,14.03
2019-04-06T12:17:15.407Z,16.53
2019-04-06T12:20:04.432Z,13.93
2019-04-06T12:22:46.734Z,11.50
2019-04-06T12:25:50.583Z,12.27
2019-04-06T12:28:37.647Z,10.57
2019-04-06T12:31:34.981Z,13.80
2019-04-06T12:34:13.409Z,9.90
2019-04-06T12:37:12.281Z,9.30
2019-04-06T12:40:27.516Z,11.07
2019-04-06T12:43:24.277Z,10.73
2019-04-06T12:46:21.971Z,10.30
2019-04-06T12:49:06.410Z,11.43
2019-04-06T12:52:09.955Z,10.90
2019-04-06T12:55:07.334Z,13.40
2019-04-06T12:58:07.862Z,11.97
2019-04-06T13:00:54.788Z,10.97
2019-04-06T13:03:37.462Z,11.47
2019-04-06T13:06:25.271Z,19.10
2019-04-06T13:09:14.452Z,11.77
2019-04-06T13:12:03.277Z,12.00
2019-04-06T13:14:54.959Z,11.60
2019-04-06T13:17:34.082Z,16.33
2019-04-06T13:20:21.368Z,13.77
2019-04-06T13:23:08.591Z,16.77
2019-04-06T13:25:49.036Z,12.23
2019-04-06T13:28:37.607Z,15.47
2019-04-06T13:31:25.009Z,15.90
2019-04-06T13:34:25.677Z,11.23
2019-04-06T13:37:14.340Z,11.97
2019-04-06T13:40:02.266Z,13.73
2019-04-06T13:42:52.022Z,12.30
2019-04-06T13:45:43.780Z,13.80
2019-04-06T13:48:30.654Z,13.63
2019-04-06T13:51:25.012Z,8.53
2019-04-06T13:54:20.459Z,12.80
2019-04-06T13:57:05.950Z,12.37
2019-04-06T14:00:07.639Z,11.17
2019-04-06T14:02:43.512Z,9.17
2019-04-06T14:05:36.880Z,10.77
2019-04-06T14:08:31.243Z,10.30
2019-04-06T14:11:18.638Z,13.67
2019-04-06T14:14:07.207Z,10.87
2019-04-06T14:16:58.788Z,11.00
2019-04-06T14:19:59.501Z,11.30
2019-04-06T14:22:50.715Z,11.80
2019-04-06T14:25:41.332Z,12.03
2019-04-06T14:28:19.535Z,12.23
2019-04-06T14:31:10.888Z,10.63
2019-04-06T14:34:02.861Z,13.33
2019-04-06T14:36:51.713Z,11.03
2019-04-06T14:39:28.614Z,12.83
2019-04-06T14:42:17.240Z,13.23
2019-04-06T14:45:23.692Z,13.83
2019-04-06T14:48:09.587Z,13.43
2019-04-06T14:50:51.976Z,12.57
2019-04-06T14:53:30.253Z,14.80
2019-04-06T14:56:17.651Z,13.77
2019-04-06T14:59:18.306Z,13.43
2019-04-06T15:02:04.516Z,12.80
2019-04-06T15:04:45.796Z,12.57
2019-04-06T15:07:40.375Z,11.93
2019-04-06T15:10:23.181Z,12.87
2019-04-06T15:13:05.787Z,11.63
2019-04-06T15:15:53.435Z,16.13
2019-04-06T15:18:50.098Z,17.17
2019-04-06T15:21:30.977Z,14.43
2019-04-06T15:24:16.499Z,13.20
2019-04-06T15:27:03.948Z,12.27
2019-04-06T15:29:50.815Z,12.70
2019-04-06T15:32:45.727Z,13.73
2019-04-06T15:35:27.592Z,10.60
2019-04-06T15:38:14.760Z,12.60
2019-04-06T15:41:02.879Z,13.70
2019-04-06T15:43:58.138Z,12.63
2019-04-06T15:46:38.956Z,12.30
2019-04-06T15:49:25.154Z,17.80
2019-04-06T15:52:19.828Z,13.33
2019-04-06T15:55:07.378Z,17.23
2019-04-06T15:58:06.376Z,20.03
2019-04-06T16:00:48.478Z,29.83
2019-04-06T16:03:38.259Z,19.20
2019-04-06T16:06:27.075Z,17.37
2019-04-06T16:09:18.467Z,46.23
2019-04-06T16:12:09.624Z,24.00
2019-04-06T16:14:55.207Z,32.43
2019-04-06T16:17:49.586Z,23.63
2019-04-06T16:20:44.085Z,20.70
2019-04-06T16:23:29.815Z,19.57
2019-04-06T16:26:05.283Z,47.13
2019-04-06T16:28:51.944Z,96.47
2019-04-06T16:31:41.603Z,35.70
2019-04-06T16:34:36.097Z,32.60
2019-04-06T16:37:33.766Z,22.17
2019-04-06T16:40:28.370Z,21.53
2019-04-06T16:43:17.032Z,25.07
2019-04-06T16:46:08.303Z,26.97
2019-04-06T16:48:44.698Z,21.60
2019-04-06T16:51:27.199Z,26.40
2019-04-06T16:54:22.393Z,24.40
2019-04-06T16:57:14.002Z,28.80
2019-04-06T17:00:02.648Z,61.40
2019-04-06T17:02:54.166Z,44.40
2019-04-06T17:05:32.697Z,27.97
2019-04-06T17:08:19.645Z,37.07
2019-04-06T17:11:08.330Z,24.73
2019-04-06T17:13:54.773Z,57.53
2019-04-06T17:16:43.395Z,48.43
2019-04-06T17:19:38.166Z,59.10
2019-04-06T17:22:18.225Z,55.90
2019-04-06T17:25:25.066Z,54.47
2019-04-06T17:28:19.620Z,50.43
2019-04-06T17:31:08.831Z,39.07
2019-04-06T17:34:06.201Z,40.53
2019-04-06T17:37:00.582Z,55.33
2019-04-06T17:39:58.496Z,90.50
2019-04-06T17:42:37.906Z,48.20
2019-04-06T17:45:36.079Z,62.10
2019-04-06T17:48:16.865Z,34.53
2019-04-06T17:51:05.629Z,33.83
2019-04-06T17:53:54.212Z,29.67
2019-04-06T17:56:50.924Z,26.70
2019-04-06T17:59:31.718Z,25.87
2019-04-06T18:02:23.882Z,30.90
2019-04-06T18:05:18.480Z,24.57
2019-04-06T18:08:13.131Z,45.43
2019-04-06T18:11:03.376Z,42.10
2019-04-06T18:13:49.899Z,44.90
2019-04-06T18:16:23.147Z,54.37
2019-04-06T18:18:53.490Z,56.10
2019-04-06T18:21:23.606Z,42.03
2019-04-06T18:23:53.650Z,44.60
2019-04-06T18:26:23.378Z,68.33
2019-04-06T18:28:53.173Z,67.40
2019-04-06T18:31:50.617Z,53.70
2019-04-06T18:34:20.376Z,55.60
2019-04-06T18:37:10.052Z,86.27
2019-04-06T18:39:40.324Z,106.93
2019-04-06T18:42:10.609Z,59.63
2019-04-06T18:44:42.155Z,66.33
2019-04-06T18:47:11.898Z,61.37
2019-04-06T18:49:42.398Z,62.70
2019-04-06T18:52:12.436Z,55.20
2019-04-06T18:54:42.174Z,62.60
2019-04-06T18:57:11.858Z,35.10
2019-04-06T18:59:41.542Z,46.43
2019-04-06T19:02:12.512Z,68.63
2019-04-06T19:04:42.908Z,62.60
2019-04-06T19:07:14.222Z,67.40
2019-04-06T19:09:44.155Z,77.40
2019-04-06T19:12:14.426Z,53.17
2019-04-06T19:14:45.101Z,50.23
2019-04-06T19:17:15.470Z,58.97
2019-04-06T19:19:45.545Z,50.07
2019-04-06T19:22:15.321Z,44.83
2019-04-06T19:24:45.120Z,73.33
2019-04-06T19:27:14.882Z,45.30
2019-04-06T19:29:44.640Z,43.57
2019-04-06T19:32:14.803Z,36.27
2019-04-06T19:34:45.401Z,39.97
2019-04-06T19:37:16.001Z,39.70
2019-04-06T19:39:46.574Z,70.63
2019-04-06T19:42:16.328Z,48.40
2019-04-06T19:44:46.328Z,48.73
2019-04-06T19:47:16.718Z,26.03
2019-04-06T19:49:46.673Z,35.30
2019-04-06T19:52:16.403Z,29.27
2019-04-06T19:54:46.153Z,28.90
2019-04-06T19:57:15.953Z,27.87
2019-04-06T19:59:45.768Z,34.57
2019-04-06T20:02:15.848Z,35.67
2019-04-06T20:04:45.670Z,29.77
2019-04-06T20:07:15.378Z,23.67
2019-04-06T20:09:45.035Z,22.20
2019-04-06T20:12:14.699Z,25.60
2019-04-06T20:14:44.391Z,25.97
2019-04-06T20:17:14.287Z,29.97
2019-04-06T20:19:43.988Z,24.47
2019-04-06T20:22:13.795Z,27.07
2019-04-06T20:24:44.110Z,27.50
2019-04-06T20:27:14.267Z,29.73
2019-04-06T20:29:44.284Z,27.37
2019-04-06T20:32:14.350Z,29.40
2019-04-06T20:34:43.976Z,29.13
2019-04-06T20:37:13.882Z,35.23
2019-04-06T20:39:43.647Z,31.57
2019-04-06T20:42:13.567Z,30.70
2019-04-06T20:44:43.628Z,33.97
2019-04-06T20:47:13.675Z,36.33
2019-04-06T20:49:43.451Z,33.07
2019-04-06T20:52:13.627Z,38.27
2019-04-06T20:54:43.284Z,40.10
2019-04-06T20:57:12.998Z,31.73
2019-04-06T20:59:42.685Z,34.70
2019-04-06T21:02:12.744Z,35.70
2019-04-06T21:04:42.831Z,35.37
2019-04-06T21:07:12.900Z,35.03
2019-04-06T21:09:42.576Z,34.27
2019-04-06T21:12:12.730Z,32.47
2019-04-06T21:14:42.875Z,29.03
2019-04-06T21:17:12.538Z,34.57
2019-04-06T21:19:42.761Z,35.70
2019-04-06T21:22:12.707Z,30.97
2019-04-06T21:24:42.893Z,31.47
2019-04-06T21:27:12.677Z,31.67
2019-04-06T21:29:42.367Z,30.20
2019-04-06T21:32:12.790Z,28.63
2019-04-06T21:34:42.682Z,36.37
2019-04-06T21:37:13.414Z,34.13
2019-04-06T21:39:44.021Z,29.70
2019-04-06T21:42:14.511Z,28.33
2019-04-06T21:44:44.303Z,32.20
2019-04-06T21:47:14.292Z,30.33
2019-04-06T21:49:44.597Z,26.10
2019-04-06T21:52:14.542Z,31.53
2019-04-06T21:54:44.257Z,27.73
2019-04-06T21:57:14.187Z,29.77
2019-04-06T21:59:44.031Z,30.67
2019-04-06T22:02:13.828Z,28.27
2019-04-06T22:04:44.143Z,27.83
2019-04-06T22:07:14.306Z,28.40
2019-04-06T22:09:44.039Z,29.93
2019-04-06T22:12:13.708Z,24.63
2019-04-06T22:14:44.021Z,32.13
2019-04-06T22:17:14.391Z,31.03
2019-04-06T22:19:44.203Z,31.13
2019-04-06T22:22:14.508Z,28.87
2019-04-06T22:24:45.102Z,29.40
2019-04-06T22:27:17.954Z,28.80
2019-04-06T22:29:47.663Z,28.57
2019-04-06T22:32:17.903Z,29.80
2019-04-06T22:34:48.595Z,26.87
2019-04-06T22:37:18.620Z,25.90
2019-04-06T22:39:48.870Z,27.47
2019-04-06T22:42:19.318Z,30.00
2019-04-06T22:44:49.375Z,28.17
2019-04-06T22:47:19.736Z,27.57
2019-04-06T22:49:49.903Z,28.07
2019-04-06T22:52:19.601Z,26.17
2019-04-06T22:54:49.280Z,28.93
2019-04-06T22:57:18.969Z,24.27
2019-04-06T22:59:48.626Z,26.80
2019-04-06T23:02:18.303Z,30.87
2019-04-06T23:04:53.959Z,61.10
2019-04-06T23:07:25.482Z,70.50
2019-04-06T23:09:55.135Z,40.00
2019-04-06T23:12:24.799Z,36.20
2019-04-06T23:14:54.532Z,35.23
2019-04-06T23:17:24.214Z,31.57
2019-04-06T23:19:54.557Z,31.37
2019-04-06T23:22:25.088Z,36.80
2019-04-06T23:24:56.312Z,28.43
2019-04-06T23:27:26.218Z,28.67
2019-04-06T23:29:56.121Z,28.40
2019-04-06T23:32:29.615Z,28.87
2019-04-06T23:35:02.013Z,24.60
2019-04-06T23:37:31.116Z,27.13
2019-04-06T23:40:01.583Z,28.07
2019-04-06T23:42:31.897Z,30.03
2019-04-06T23:45:01.557Z,30.23
2019-04-06T23:47:32.336Z,28.07
2019-04-06T23:50:02.059Z,27.07
2019-04-06T23:52:31.716Z,26.93
2019-04-06T23:55:01.378Z,30.23
2019-04-06T23:57:31.540Z,29.87
